< < Back
Terminal Aerodrome Forecast


Current Version              Previous Versions:   1  2  3  4  5  6  7  8  9  

Terminal Aerodrome Forecast

822
FTUS42 KJAX 310500
TAFJAX
TAF
KJAX 310540Z 3106/0106 31004KT P6SM SCT025 BKN035
      TEMPO 3108/3112 BKN025
     FM311500 31010KT P6SM FEW040
     FM312300 27005KT P6SM SKC=



Latest METAR

030
SAUS80 KWBC 311100
MTRJAX
METAR KJAX 311056Z 33004KT 9SM SCT032 14/14 A2986 RMK AO2 SLP112
T01390139


USA.gov is the U.S. government's official web portal to all federal, state and local government web resources and services.